createdAt,value
2022-09-25T00:01:50.390Z,13.37
2022-09-25T00:04:53.196Z,13.42
2022-09-25T00:07:56.523Z,13.51
2022-09-25T00:10:58.233Z,13.40
2022-09-25T00:14:01.330Z,13.50
2022-09-25T00:17:03.200Z,13.51
2022-09-25T00:20:05.608Z,13.58
2022-09-25T00:23:08.795Z,13.50
2022-09-25T00:26:11.043Z,13.39
2022-09-25T00:29:17.496Z,13.24
2022-09-25T00:32:19.178Z,13.17
2022-09-25T00:35:20.852Z,13.24
2022-09-25T00:38:23.779Z,13.34
2022-09-25T00:41:27.587Z,13.33
2022-09-25T00:44:56.269Z,13.32
2022-09-25T00:48:01.049Z,13.15
2022-09-25T00:51:02.885Z,13.06
2022-09-25T00:54:08.226Z,13.05
2022-09-25T00:57:19.330Z,13.18
2022-09-25T01:00:21.131Z,13.31
2022-09-25T01:03:23.388Z,13.34
2022-09-25T01:06:27.335Z,13.15
2022-09-25T01:09:30.925Z,13.24
2022-09-25T01:12:33.585Z,13.17
2022-09-25T01:15:43.255Z,13.14
2022-09-25T01:18:57.154Z,13.24
2022-09-25T01:22:10.991Z,13.27
2022-09-25T01:25:25.028Z,13.40
2022-09-25T01:28:54.277Z,13.27
2022-09-25T01:32:03.090Z,13.37
2022-09-25T01:35:12.575Z,13.26
2022-09-25T01:38:23.748Z,13.25
2022-09-25T01:41:30.336Z,13.11
2022-09-25T01:44:36.837Z,13.03
2022-09-25T01:47:39.352Z,13.06
2022-09-25T01:50:44.911Z,13.14
2022-09-25T01:53:52.275Z,13.09
2022-09-25T01:56:57.443Z,13.16
2022-09-25T02:00:05.726Z,12.95
2022-09-25T02:03:21.391Z,13.02
2022-09-25T02:06:24.836Z,13.02
2022-09-25T02:09:32.374Z,12.97
2022-09-25T02:12:40.750Z,12.96
2022-09-25T02:15:48.693Z,12.91
2022-09-25T02:19:09.348Z,12.93
2022-09-25T02:22:17.304Z,12.84
2022-09-25T02:25:25.377Z,12.83
2022-09-25T02:28:29.060Z,12.96
2022-09-25T02:31:36.339Z,13.11
2022-09-25T02:34:38.615Z,12.94
2022-09-25T02:37:40.331Z,12.93
2022-09-25T02:40:50.465Z,12.91
2022-09-25T02:44:03.211Z,13.03
2022-09-25T02:47:19.456Z,12.83
2022-09-25T02:50:26.609Z,12.87
2022-09-25T02:53:35.063Z,12.84
2022-09-25T02:56:42.566Z,12.83
2022-09-25T02:59:50.029Z,12.82
2022-09-25T03:02:56.613Z,12.75
2022-09-25T03:05:59.911Z,12.76
2022-09-25T03:09:02.573Z,12.77
2022-09-25T03:12:05.069Z,12.81
2022-09-25T03:15:08.045Z,12.77
2022-09-25T03:18:12.200Z,12.94
2022-09-25T03:21:14.263Z,12.99
2022-09-25T03:24:16.203Z,12.95
2022-09-25T03:27:17.814Z,12.81
2022-09-25T03:30:19.558Z,12.84
2022-09-25T03:33:22.543Z,12.90
2022-09-25T03:36:25.861Z,12.77
2022-09-25T03:39:27.647Z,12.83
2022-09-25T03:42:29.782Z,12.84
2022-09-25T03:45:31.407Z,12.92
2022-09-25T03:48:35.042Z,12.89
2022-09-25T03:51:36.659Z,12.98
2022-09-25T03:54:38.556Z,12.83
2022-09-25T03:57:41.197Z,12.73
2022-09-25T04:00:44.327Z,12.73
2022-09-25T04:03:47.726Z,12.75
2022-09-25T04:06:49.613Z,12.73
2022-09-25T04:09:51.360Z,12.83
2022-09-25T04:12:54.311Z,12.91
2022-09-25T04:15:57.628Z,12.82
2022-09-25T04:19:00.628Z,12.83
2022-09-25T04:22:02.290Z,12.94
2022-09-25T04:25:04.723Z,12.88
2022-09-25T04:28:06.992Z,12.98
2022-09-25T04:31:08.749Z,13.06
2022-09-25T04:34:11.988Z,12.97
2022-09-25T04:37:14.062Z,12.83
2022-09-25T04:40:15.987Z,12.72
2022-09-25T04:43:18.350Z,12.73
2022-09-25T04:46:22.237Z,12.75
2022-09-25T04:49:25.711Z,12.64
2022-09-25T04:52:31.731Z,12.78
2022-09-25T04:55:33.393Z,12.77
2022-09-25T04:58:35.366Z,12.65
2022-09-25T05:01:37.294Z,12.71
2022-09-25T05:04:40.831Z,12.66
2022-09-25T05:07:51.518Z,12.65
2022-09-25T05:10:53.184Z,12.67
2022-09-25T05:13:54.899Z,12.68
2022-09-25T05:16:56.970Z,12.60
2022-09-25T05:19:59.960Z,12.49
2022-09-25T05:23:04.320Z,12.57
2022-09-25T05:26:06.087Z,12.64
2022-09-25T05:29:07.834Z,12.56
2022-09-25T05:32:09.496Z,12.56
2022-09-25T05:35:13.606Z,12.59
2022-09-25T05:38:15.224Z,12.53
2022-09-25T05:41:17.146Z,12.57
2022-09-25T05:44:18.803Z,12.53
2022-09-25T05:47:20.489Z,12.57
2022-09-25T05:50:23.467Z,12.47
2022-09-25T05:53:25.748Z,12.57
2022-09-25T05:56:27.450Z,12.38
2022-09-25T05:59:29.561Z,12.39
2022-09-25T06:02:31.307Z,12.50
2022-09-25T06:05:34.648Z,12.44
2022-09-25T06:08:36.422Z,12.42
2022-09-25T06:11:38.059Z,12.48
2022-09-25T06:14:40.971Z,12.63
2022-09-25T06:17:42.970Z,12.59
2022-09-25T06:20:46.174Z,12.54
2022-09-25T06:23:48.663Z,12.53
2022-09-25T06:26:50.596Z,12.60
2022-09-25T06:29:52.307Z,12.59
2022-09-25T06:32:57.536Z,12.62
2022-09-25T06:36:01.108Z,12.57
2022-09-25T06:39:03.242Z,12.52
2022-09-25T06:42:05.236Z,12.72
2022-09-25T06:45:07.928Z,12.56
2022-09-25T06:48:12.577Z,12.61
2022-09-25T06:51:15.614Z,12.65
2022-09-25T06:54:17.753Z,12.64
2022-09-25T06:57:19.468Z,12.75
2022-09-25T07:00:21.111Z,12.76
2022-09-25T07:03:42.353Z,12.69
2022-09-25T07:06:45.730Z,12.84
2022-09-25T07:09:50.709Z,12.75
2022-09-25T07:12:52.353Z,12.66
2022-09-25T07:15:55.561Z,12.71
2022-09-25T07:19:00.725Z,12.79
2022-09-25T07:22:04.836Z,12.98
2022-09-25T07:25:08.035Z,13.07
2022-09-25T07:28:09.791Z,13.16
2022-09-25T07:31:16.210Z,13.05
2022-09-25T07:34:17.928Z,13.13
2022-09-25T07:37:21.106Z,13.24
2022-09-25T07:40:22.992Z,13.19
2022-09-25T07:43:24.756Z,13.24
2022-09-25T07:46:28.327Z,13.25
2022-09-25T07:49:30.009Z,13.13
2022-09-25T07:52:33.230Z,13.20
2022-09-25T07:55:34.876Z,13.15
2022-09-25T07:58:36.545Z,13.23
2022-09-25T08:01:43.618Z,13.13
2022-09-25T08:04:47.242Z,13.33
2022-09-25T08:07:50.248Z,13.43
2022-09-25T08:10:51.944Z,13.32
2022-09-25T08:13:54.213Z,13.17
2022-09-25T08:16:56.243Z,13.27
2022-09-25T08:19:58.302Z,13.34
2022-09-25T08:23:01.338Z,13.31
2022-09-25T08:26:03.030Z,13.28
2022-09-25T08:29:04.950Z,13.45
2022-09-25T08:32:06.839Z,13.36
2022-09-25T08:35:09.361Z,13.39
2022-09-25T08:38:12.455Z,13.52
2022-09-25T08:41:18.099Z,13.48
2022-09-25T08:44:26.207Z,13.40
2022-09-25T08:47:47.417Z,13.59
2022-09-25T08:50:51.009Z,13.57
2022-09-25T08:53:54.346Z,13.42
2022-09-25T08:57:00.256Z,13.49
2022-09-25T09:00:06.048Z,13.52
2022-09-25T09:03:12.341Z,13.64
2022-09-25T09:06:16.820Z,13.49
2022-09-25T09:09:25.777Z,13.34
2022-09-25T09:12:35.900Z,13.25
2022-09-25T09:15:43.096Z,13.34
2022-09-25T09:18:45.112Z,13.18
2022-09-25T09:21:54.291Z,13.21
2022-09-25T09:25:04.568Z,13.03
2022-09-25T09:28:32.948Z,13.37
2022-09-25T09:31:46.784Z,13.35
2022-09-25T09:35:06.815Z,13.49
2022-09-25T09:38:21.918Z,13.74
2022-09-25T09:41:35.168Z,13.59
2022-09-25T09:44:54.302Z,13.63
2022-09-25T09:48:04.126Z,13.57
2022-09-25T09:51:09.840Z,13.61
2022-09-25T09:54:15.947Z,13.91
2022-09-25T09:57:23.081Z,13.71
2022-09-25T10:00:25.195Z,13.85
2022-09-25T10:03:32.672Z,13.73
2022-09-25T10:06:37.836Z,13.66
2022-09-25T10:09:39.786Z,13.89
2022-09-25T10:12:46.954Z,14.11
2022-09-25T10:15:52.715Z,13.86
2022-09-25T10:19:00.996Z,13.72
2022-09-25T10:22:10.050Z,13.83
2022-09-25T10:25:11.828Z,13.99
2022-09-25T10:28:26.932Z,14.06
2022-09-25T10:31:31.983Z,14.00
2022-09-25T10:34:33.827Z,14.09
2022-09-25T10:37:35.981Z,14.41
2022-09-25T10:40:39.210Z,14.46
2022-09-25T10:43:53.751Z,14.38
2022-09-25T10:47:14.706Z,14.48
2022-09-25T10:50:20.238Z,14.77
2022-09-25T10:53:30.608Z,14.83
2022-09-25T10:56:36.018Z,14.83
2022-09-25T10:59:40.089Z,14.62
2022-09-25T11:02:46.245Z,14.75
2022-09-25T11:05:53.188Z,14.58
2022-09-25T11:09:07.916Z,14.13
2022-09-25T11:12:16.132Z,14.15
2022-09-25T11:15:22.108Z,14.01
2022-09-25T11:18:36.381Z,14.08
2022-09-25T11:21:45.412Z,14.24
2022-09-25T11:25:04.541Z,14.06
2022-09-25T11:28:13.133Z,14.05
2022-09-25T11:31:32.962Z,13.98
2022-09-25T11:34:47.925Z,14.05
2022-09-25T11:38:02.598Z,14.23
2022-09-25T11:41:12.888Z,14.50
2022-09-25T11:44:34.343Z,14.30
2022-09-25T11:47:44.209Z,14.23
2022-09-25T11:50:59.519Z,14.35
2022-09-25T11:54:32.585Z,14.57
2022-09-25T11:57:43.657Z,14.64
2022-09-25T12:00:53.139Z,14.73
2022-09-25T12:04:28.402Z,14.88
2022-09-25T12:07:40.745Z,14.64
2022-09-25T12:10:54.336Z,14.75
2022-09-25T12:14:03.304Z,14.73
2022-09-25T12:17:12.860Z,14.88
2022-09-25T12:20:24.948Z,14.72
2022-09-25T12:23:31.386Z,14.84
2022-09-25T12:26:46.084Z,14.78
2022-09-25T12:30:11.632Z,14.85
2022-09-25T12:33:23.849Z,14.79
2022-09-25T12:36:36.359Z,14.74
2022-09-25T12:39:43.587Z,14.43
2022-09-25T12:42:49.675Z,14.38
2022-09-25T12:45:56.981Z,14.53
2022-09-25T12:49:04.455Z,14.32
2022-09-25T12:52:12.918Z,14.14
2022-09-25T12:55:19.094Z,13.84
2022-09-25T12:58:28.669Z,13.85
2022-09-25T13:01:40.705Z,14.21
2022-09-25T13:04:55.418Z,14.13
2022-09-25T13:08:07.151Z,14.06
2022-09-25T13:11:16.313Z,14.05
2022-09-25T13:14:30.567Z,14.03
2022-09-25T13:17:32.465Z,14.10
2022-09-25T13:21:22.094Z,13.92
2022-09-25T13:24:25.346Z,13.54
2022-09-25T13:27:38.736Z,13.59
2022-09-25T13:30:56.849Z,13.65
2022-09-25T13:34:05.153Z,13.48
2022-09-25T13:37:09.303Z,13.35
2022-09-25T13:40:37.895Z,13.36
2022-09-25T13:43:39.924Z,13.44
2022-09-25T13:46:41.705Z,13.44
2022-09-25T13:49:50.433Z,13.26
2022-09-25T13:53:18.201Z,13.25
2022-09-25T13:56:44.628Z,13.29
2022-09-25T14:00:02.189Z,13.34
2022-09-25T14:03:28.000Z,13.23
2022-09-25T14:06:38.873Z,13.37
2022-09-25T14:09:46.004Z,13.51
2022-09-25T14:12:49.632Z,13.24
2022-09-25T14:15:52.931Z,13.20
2022-09-25T14:18:58.159Z,13.31
2022-09-25T14:22:01.791Z,13.75
2022-09-25T14:25:03.876Z,13.44
2022-09-25T14:28:18.890Z,13.48
2022-09-25T14:31:46.253Z,13.50
2022-09-25T14:35:01.296Z,13.55
2022-09-25T14:38:37.066Z,13.34
2022-09-25T14:42:03.094Z,13.50
2022-09-25T14:45:30.988Z,13.51
2022-09-25T14:48:38.594Z,13.49
2022-09-25T14:51:44.434Z,13.49
2022-09-25T14:54:48.574Z,13.48
2022-09-25T14:57:51.440Z,13.31
2022-09-25T15:00:57.825Z,13.42
2022-09-25T15:04:02.211Z,13.37
2022-09-25T15:07:14.562Z,13.38
2022-09-25T15:10:26.505Z,13.47
2022-09-25T15:13:33.428Z,13.40
2022-09-25T15:16:57.229Z,13.43
2022-09-25T15:20:01.592Z,13.53
2022-09-25T15:23:05.684Z,13.61
2022-09-25T15:26:16.322Z,13.62
2022-09-25T15:29:21.526Z,13.68
2022-09-25T15:32:28.652Z,13.65
2022-09-25T15:35:30.928Z,13.56
2022-09-25T15:38:35.196Z,13.51
2022-09-25T15:41:36.878Z,13.44
2022-09-25T15:44:38.542Z,13.56
2022-09-25T15:47:54.437Z,13.39
2022-09-25T15:50:59.540Z,13.49
2022-09-25T15:54:03.886Z,13.43
2022-09-25T15:57:11.173Z,13.47
2022-09-25T16:00:56.947Z,13.41
2022-09-25T16:04:20.414Z,13.39
2022-09-25T16:07:26.046Z,13.38
2022-09-25T16:10:33.835Z,13.37
2022-09-25T16:13:39.003Z,13.47
2022-09-25T16:16:46.467Z,13.37
2022-09-25T16:20:01.715Z,13.32
2022-09-25T16:23:05.762Z,13.39
2022-09-25T16:26:15.622Z,13.34
2022-09-25T16:29:22.298Z,13.36
2022-09-25T16:32:27.795Z,13.31
2022-09-25T16:35:51.189Z,13.22
2022-09-25T16:39:26.538Z,13.30
2022-09-25T16:42:31.410Z,13.28
2022-09-25T16:45:34.627Z,13.23
2022-09-25T16:48:39.090Z,13.12
2022-09-25T16:51:45.764Z,13.17
2022-09-25T16:54:53.096Z,13.16
2022-09-25T16:57:56.074Z,13.02
2022-09-25T17:00:58.886Z,13.12
2022-09-25T17:04:01.142Z,13.11
2022-09-25T17:07:04.165Z,13.05
2022-09-25T17:10:09.069Z,13.06
2022-09-25T17:13:15.071Z,13.01
2022-09-25T17:16:17.089Z,13.02
2022-09-25T17:19:19.137Z,12.93
2022-09-25T17:22:29.304Z,12.90
2022-09-25T17:25:40.242Z,12.82
2022-09-25T17:28:41.795Z,12.89
2022-09-25T17:31:43.786Z,12.77
2022-09-25T17:34:46.457Z,12.82
2022-09-25T17:37:49.558Z,12.92
2022-09-25T17:40:52.660Z,12.92
2022-09-25T17:43:54.365Z,12.73
2022-09-25T17:46:56.599Z,12.63
2022-09-25T17:49:59.140Z,12.66
2022-09-25T17:53:03.484Z,12.65
2022-09-25T17:56:06.806Z,12.64
2022-09-25T17:59:09.664Z,12.60
2022-09-25T18:02:15.720Z,12.61
2022-09-25T18:05:18.440Z,12.61
2022-09-25T18:08:21.687Z,12.60
2022-09-25T18:11:25.569Z,12.44
2022-09-25T18:14:27.190Z,12.55
2022-09-25T18:17:28.939Z,12.52
2022-09-25T18:20:49.292Z,12.53
2022-09-25T18:23:52.256Z,12.52
2022-09-25T18:26:56.530Z,12.38
2022-09-25T18:29:58.409Z,12.31
2022-09-25T18:33:00.423Z,12.20
2022-09-25T18:36:03.324Z,12.10
2022-09-25T18:39:06.818Z,12.15
2022-09-25T18:42:08.490Z,12.00
2022-09-25T18:45:12.116Z,12.04
2022-09-25T18:48:13.780Z,11.95
2022-09-25T18:51:15.630Z,12.09
2022-09-25T18:54:19.445Z,12.11
2022-09-25T18:57:21.311Z,12.00
2022-09-25T19:00:22.980Z,11.94
2022-09-25T19:03:24.602Z,12.12
2022-09-25T19:06:26.413Z,11.98
2022-09-25T19:09:29.603Z,11.95
2022-09-25T19:12:31.254Z,11.93
2022-09-25T19:15:33.319Z,11.87
2022-09-25T19:18:35.484Z,12.04
2022-09-25T19:21:37.159Z,11.97
2022-09-25T19:24:41.872Z,12.14
2022-09-25T19:27:45.979Z,12.21
2022-09-25T19:30:55.830Z,12.05
2022-09-25T19:34:00.868Z,11.96
2022-09-25T19:37:02.795Z,11.88
2022-09-25T19:40:27.438Z,11.90
2022-09-25T19:43:29.211Z,11.89
2022-09-25T19:46:31.974Z,11.85
2022-09-25T19:49:33.683Z,11.97
2022-09-25T19:52:35.767Z,12.02
2022-09-25T19:55:40.912Z,11.91
2022-09-25T19:58:43.205Z,11.98
2022-09-25T20:01:45.505Z,11.99
2022-09-25T20:04:48.582Z,12.07
2022-09-25T20:07:51.074Z,11.89
2022-09-25T20:10:54.183Z,11.79
2022-09-25T20:13:56.010Z,11.91
2022-09-25T20:16:57.668Z,12.05
2022-09-25T20:19:59.315Z,12.01
2022-09-25T20:23:00.927Z,11.93
2022-09-25T20:26:11.882Z,11.64
2022-09-25T20:29:15.063Z,11.51
2022-09-25T20:32:16.662Z,11.58
2022-09-25T20:35:18.906Z,11.63
2022-09-25T20:38:20.670Z,11.64
2022-09-25T20:41:25.963Z,11.54
2022-09-25T20:44:27.640Z,11.36
2022-09-25T20:47:33.600Z,11.42
2022-09-25T20:50:37.095Z,11.31
2022-09-25T20:53:39.576Z,11.34
2022-09-25T20:56:45.382Z,11.20
2022-09-25T20:59:47.090Z,11.12
2022-09-25T21:02:49.786Z,11.15
2022-09-25T21:05:51.762Z,11.14
2022-09-25T21:08:55.117Z,11.11
2022-09-25T21:11:58.295Z,11.06
2022-09-25T21:14:59.939Z,11.11
2022-09-25T21:18:01.716Z,11.06
2022-09-25T21:21:05.240Z,11.04
2022-09-25T21:24:07.248Z,11.08
2022-09-25T21:27:10.260Z,11.10
2022-09-25T21:30:13.059Z,11.02
2022-09-25T21:33:15.541Z,10.94
2022-09-25T21:36:17.706Z,10.92
2022-09-25T21:39:21.213Z,10.88
2022-09-25T21:42:24.745Z,10.84
2022-09-25T21:45:26.388Z,10.76
2022-09-25T21:48:28.570Z,10.76
2022-09-25T21:51:32.943Z,10.80
2022-09-25T21:54:34.771Z,10.84
2022-09-25T21:57:37.792Z,10.87
2022-09-25T22:00:39.836Z,10.77
2022-09-25T22:03:43.068Z,10.75
2022-09-25T22:06:47.400Z,10.72
2022-09-25T22:09:49.279Z,10.74
2022-09-25T22:12:53.860Z,10.66
2022-09-25T22:16:02.015Z,10.76
2022-09-25T22:19:09.884Z,10.92
2022-09-25T22:22:11.531Z,10.90
2022-09-25T22:25:13.266Z,10.89
2022-09-25T22:28:16.319Z,10.82
2022-09-25T22:31:20.390Z,10.94
2022-09-25T22:34:24.233Z,10.87
2022-09-25T22:37:26.378Z,10.90
2022-09-25T22:40:28.267Z,10.80
2022-09-25T22:43:31.918Z,10.88
2022-09-25T22:46:33.639Z,10.69
2022-09-25T22:49:35.340Z,10.64
2022-09-25T22:52:37.024Z,10.60
2022-09-25T22:55:38.693Z,10.47
2022-09-25T22:58:42.359Z,10.51
2022-09-25T23:01:46.494Z,10.44
2022-09-25T23:04:51.948Z,10.45
2022-09-25T23:07:53.649Z,10.43
2022-09-25T23:11:07.300Z,10.41
2022-09-25T23:14:16.483Z,10.40
2022-09-25T23:17:18.359Z,10.35
2022-09-25T23:20:20.005Z,10.29
2022-09-25T23:23:21.844Z,10.25
2022-09-25T23:26:23.695Z,10.16
2022-09-25T23:29:26.729Z,10.12
2022-09-25T23:32:28.347Z,10.02
2022-09-25T23:35:34.211Z,10.31
2022-09-25T23:38:36.892Z,10.25
2022-09-25T23:41:39.579Z,10.12
2022-09-25T23:44:42.579Z,10.02
2022-09-25T23:47:44.258Z,10.10
2022-09-25T23:50:46.094Z,10.07
2022-09-25T23:53:47.765Z,9.97
2022-09-25T23:56:50.180Z,9.97
2022-09-25T23:59:53.169Z,9.90
